createdAt,value
2023-12-01T00:01:42.097Z,25.10
2023-12-01T00:04:14.058Z,27.10
2023-12-01T00:06:45.933Z,24.30
2023-12-01T00:09:17.864Z,26.80
2023-12-01T00:11:49.731Z,23.00
2023-12-01T00:14:21.658Z,28.00
2023-12-01T00:16:53.813Z,34.20
2023-12-01T00:19:25.697Z,31.40
2023-12-01T00:21:59.033Z,27.80
2023-12-01T00:24:31.231Z,27.40
2023-12-01T00:27:03.611Z,27.00
2023-12-01T00:29:35.434Z,25.00
2023-12-01T00:32:07.837Z,23.40
2023-12-01T00:34:39.755Z,24.70
2023-12-01T00:37:11.694Z,23.80
2023-12-01T00:39:43.883Z,21.90
2023-12-01T00:42:15.824Z,23.00
2023-12-01T00:44:47.691Z,25.30
2023-12-01T00:47:19.739Z,21.30
2023-12-01T00:49:51.673Z,24.10
2023-12-01T00:52:23.583Z,22.10
2023-12-01T00:54:55.683Z,22.80
2023-12-01T00:57:27.603Z,19.80
2023-12-01T00:59:59.468Z,21.90
2023-12-01T01:02:32.775Z,21.20
2023-12-01T01:05:05.164Z,23.40
2023-12-01T01:07:37.052Z,22.90
2023-12-01T01:10:09.192Z,22.30
2023-12-01T01:12:41.348Z,24.10
2023-12-01T01:15:13.591Z,20.50
2023-12-01T01:17:45.450Z,23.00
2023-12-01T01:20:17.154Z,23.50
2023-12-01T01:22:48.777Z,23.50
2023-12-01T01:25:20.621Z,21.10
2023-12-01T01:27:52.232Z,23.30
2023-12-01T01:30:23.966Z,21.60
2023-12-01T01:32:55.660Z,41.30
2023-12-01T01:35:27.331Z,39.10
2023-12-01T01:37:58.938Z,30.40
2023-12-01T01:40:30.639Z,24.60
2023-12-01T01:43:02.305Z,29.20
2023-12-01T01:45:34.111Z,28.40
2023-12-01T01:48:06.008Z,33.60
2023-12-01T01:50:38.253Z,28.90
2023-12-01T01:53:09.932Z,28.40
2023-12-01T01:55:41.546Z,26.20
2023-12-01T01:58:13.794Z,22.30
2023-12-01T02:00:50.761Z,21.80
2023-12-01T02:03:25.149Z,24.00
2023-12-01T02:05:56.805Z,21.60
2023-12-01T02:08:30.375Z,23.10
2023-12-01T02:11:02.191Z,21.60
2023-12-01T02:13:33.848Z,18.80
2023-12-01T02:16:06.305Z,23.30
2023-12-01T02:18:38.054Z,22.30
2023-12-01T02:21:09.717Z,20.20
2023-12-01T02:23:41.370Z,19.80
2023-12-01T02:26:14.153Z,20.20
2023-12-01T02:28:45.781Z,21.70
2023-12-01T02:31:17.482Z,24.40
2023-12-01T02:33:49.247Z,22.50
2023-12-01T02:36:20.862Z,25.10
2023-12-01T02:38:52.709Z,21.40
2023-12-01T02:41:24.353Z,20.50
2023-12-01T02:43:56.117Z,22.30
2023-12-01T02:46:27.857Z,21.80
2023-12-01T02:48:59.675Z,19.60
2023-12-01T02:51:31.287Z,22.20
2023-12-01T02:54:02.911Z,20.90
2023-12-01T02:56:34.521Z,21.80
2023-12-01T02:59:06.127Z,23.00
2023-12-01T03:01:37.866Z,21.90
2023-12-01T03:04:09.547Z,22.70
2023-12-01T03:06:41.224Z,21.10
2023-12-01T03:09:18.463Z,25.50
2023-12-01T03:11:51.163Z,26.70
2023-12-01T03:14:24.021Z,25.00
2023-12-01T03:16:57.758Z,25.30
2023-12-01T03:19:30.790Z,22.50
2023-12-01T03:22:02.438Z,25.00
2023-12-01T03:24:34.125Z,23.70
2023-12-01T03:27:05.687Z,25.90
2023-12-01T03:29:39.235Z,27.50
2023-12-01T03:32:10.921Z,28.40
2023-12-01T03:34:42.544Z,25.70
2023-12-01T03:37:14.428Z,24.70
2023-12-01T03:39:46.077Z,27.70
2023-12-01T03:42:17.757Z,26.10
2023-12-01T03:44:49.413Z,28.20
2023-12-01T03:47:20.974Z,31.50
2023-12-01T03:49:52.553Z,31.20
2023-12-01T03:52:24.161Z,28.80
2023-12-01T03:54:55.925Z,28.50
2023-12-01T03:57:28.654Z,32.70
2023-12-01T04:00:00.284Z,33.60
2023-12-01T04:02:31.936Z,30.50
2023-12-01T04:05:03.816Z,31.60
2023-12-01T04:07:36.493Z,32.50
2023-12-01T04:10:11.991Z,29.40
2023-12-01T04:12:47.765Z,31.50
2023-12-01T04:15:21.337Z,29.60
2023-12-01T04:17:54.092Z,30.00
2023-12-01T04:20:27.634Z,30.00
2023-12-01T04:23:01.693Z,32.20
2023-12-01T04:25:33.504Z,31.80
2023-12-01T04:28:06.517Z,33.50
2023-12-01T04:30:38.273Z,33.60
2023-12-01T04:33:10.146Z,33.50
2023-12-01T04:35:41.837Z,33.30
2023-12-01T04:38:13.597Z,33.50
2023-12-01T04:40:45.267Z,33.20
2023-12-01T04:43:19.109Z,34.70
2023-12-01T04:45:50.842Z,34.00
2023-12-01T04:48:22.434Z,33.40
2023-12-01T04:50:54.180Z,32.90
2023-12-01T04:53:25.782Z,32.50
2023-12-01T04:55:57.394Z,31.20
2023-12-01T04:58:29.042Z,35.60
2023-12-01T05:01:00.818Z,35.60
2023-12-01T05:03:32.493Z,38.60
2023-12-01T05:06:04.594Z,43.00
2023-12-01T05:08:36.146Z,43.50
2023-12-01T05:11:07.786Z,41.60
2023-12-01T05:13:39.446Z,40.20
2023-12-01T05:16:11.146Z,42.30
2023-12-01T05:18:43.036Z,34.40
2023-12-01T05:21:16.428Z,38.90
2023-12-01T05:23:48.725Z,37.40
2023-12-01T05:26:20.339Z,38.80
2023-12-01T05:28:51.907Z,36.00
2023-12-01T05:31:23.655Z,35.80
2023-12-01T05:34:02.064Z,38.10
2023-12-01T05:36:38.442Z,44.10
2023-12-01T05:39:14.410Z,41.10
2023-12-01T05:41:46.220Z,49.90
2023-12-01T05:44:18.252Z,41.60
2023-12-01T05:46:50.049Z,39.30
2023-12-01T05:49:21.723Z,38.70
2023-12-01T05:51:53.298Z,46.60
2023-12-01T05:54:25.110Z,48.30
2023-12-01T05:56:57.784Z,45.60
2023-12-01T05:59:29.441Z,44.60
2023-12-01T06:02:06.637Z,48.00
2023-12-01T06:04:39.623Z,43.00
2023-12-01T06:07:11.407Z,43.60
2023-12-01T06:09:43.236Z,44.60
2023-12-01T06:12:14.924Z,42.20
2023-12-01T06:14:46.541Z,45.20
2023-12-01T06:17:18.154Z,41.50
2023-12-01T06:19:49.809Z,40.10
2023-12-01T06:22:21.444Z,39.40
2023-12-01T06:24:53.375Z,45.90
2023-12-01T06:27:25.045Z,43.00
2023-12-01T06:29:56.717Z,38.60
2023-12-01T06:32:28.377Z,36.70
2023-12-01T06:35:00.022Z,39.60
2023-12-01T06:37:31.687Z,38.90
2023-12-01T06:40:13.034Z,42.20
2023-12-01T06:42:50.412Z,47.30
2023-12-01T06:45:26.986Z,52.30
2023-12-01T06:48:02.456Z,46.80
2023-12-01T06:50:34.779Z,46.00
2023-12-01T06:53:08.367Z,45.90
2023-12-01T06:55:41.336Z,41.60
2023-12-01T06:58:13.127Z,48.30
2023-12-01T07:00:44.789Z,45.20
2023-12-01T07:03:17.086Z,43.20
2023-12-01T07:05:53.307Z,46.20
2023-12-01T07:08:25.163Z,46.40
2023-12-01T07:10:57.013Z,42.80
2023-12-01T07:13:31.137Z,42.80
2023-12-01T07:16:11.583Z,43.40
2023-12-01T07:18:44.414Z,47.20
2023-12-01T07:21:16.155Z,46.50
2023-12-01T07:23:48.555Z,47.90
2023-12-01T07:26:27.170Z,50.30
2023-12-01T07:28:59.321Z,47.40
2023-12-01T07:31:31.411Z,50.60
2023-12-01T07:34:03.320Z,48.00
2023-12-01T07:36:40.669Z,51.60
2023-12-01T07:39:12.977Z,50.50
2023-12-01T07:41:44.667Z,52.40
2023-12-01T07:44:16.229Z,58.70
2023-12-01T07:46:48.039Z,54.80
2023-12-01T07:49:19.660Z,51.30
2023-12-01T07:51:51.321Z,56.90
2023-12-01T07:54:23.445Z,47.90
2023-12-01T07:56:55.050Z,44.70
2023-12-01T07:59:26.765Z,44.80
2023-12-01T08:01:59.544Z,43.00
2023-12-01T08:04:32.534Z,41.90
2023-12-01T08:07:04.442Z,44.10
2023-12-01T08:09:39.221Z,42.50
2023-12-01T08:12:10.919Z,44.60
2023-12-01T08:14:45.444Z,38.80
2023-12-01T08:17:17.180Z,43.40
2023-12-01T08:19:48.810Z,41.20
2023-12-01T08:22:20.405Z,38.60
2023-12-01T08:24:52.177Z,38.80
2023-12-01T08:27:23.801Z,38.20
2023-12-01T08:29:58.532Z,35.60
2023-12-01T08:32:30.361Z,38.20
2023-12-01T08:35:03.072Z,39.50
2023-12-01T08:37:34.708Z,38.40
2023-12-01T08:40:09.844Z,41.40
2023-12-01T08:42:42.710Z,41.30
2023-12-01T08:45:14.349Z,43.70
2023-12-01T08:47:46.002Z,40.60
2023-12-01T08:50:19.290Z,44.60
2023-12-01T08:55:22.614Z,38.40
2023-12-01T08:57:54.644Z,35.50
2023-12-01T09:00:26.273Z,41.50
2023-12-01T09:02:58.655Z,36.20
2023-12-01T09:05:30.576Z,38.40
2023-12-01T09:08:07.162Z,35.50
2023-12-01T09:10:39.541Z,35.70
2023-12-01T09:13:12.568Z,34.20
2023-12-01T09:15:44.207Z,35.00
2023-12-01T09:18:16.090Z,35.80
2023-12-01T09:20:47.841Z,35.40
2023-12-01T09:23:19.602Z,37.30
2023-12-01T09:25:51.257Z,36.00
2023-12-01T09:28:24.470Z,35.00
2023-12-01T09:30:59.522Z,32.50
2023-12-01T09:33:34.097Z,34.20
2023-12-01T09:36:06.341Z,34.20
2023-12-01T09:38:37.959Z,31.30
2023-12-01T09:41:09.580Z,31.00
2023-12-01T09:43:44.929Z,30.50
2023-12-01T09:46:17.063Z,27.90
2023-12-01T09:48:48.774Z,29.80
2023-12-01T09:51:20.466Z,25.70
2023-12-01T09:53:52.209Z,25.70
2023-12-01T09:56:24.269Z,24.10
2023-12-01T09:58:59.846Z,21.90
2023-12-01T10:01:31.527Z,25.90
2023-12-01T10:04:03.313Z,25.80
2023-12-01T10:06:37.050Z,29.90
2023-12-01T10:09:11.736Z,23.40
2023-12-01T10:11:43.596Z,23.10
2023-12-01T10:14:15.196Z,25.20
2023-12-01T10:16:46.806Z,21.90
2023-12-01T10:19:18.565Z,23.60
2023-12-01T10:21:51.159Z,18.10
2023-12-01T10:24:24.791Z,20.00
2023-12-01T10:26:57.887Z,20.00
2023-12-01T10:29:31.928Z,21.10
2023-12-01T10:32:05.948Z,18.80
2023-12-01T10:34:38.448Z,18.00
2023-12-01T10:37:11.106Z,15.30
2023-12-01T10:39:43.569Z,15.30
2023-12-01T10:42:16.854Z,15.30
2023-12-01T10:44:49.563Z,14.90
2023-12-01T10:47:23.027Z,14.60
2023-12-01T10:52:31.865Z,13.80
2023-12-01T10:55:05.762Z,15.70
2023-12-01T10:57:41.229Z,18.10
2023-12-01T11:00:36.651Z,16.50
2023-12-01T11:03:10.349Z,14.60
2023-12-01T11:05:43.085Z,15.20
2023-12-01T11:08:29.603Z,14.50
2023-12-01T11:11:09.994Z,15.10
2023-12-01T11:14:00.450Z,14.00
2023-12-01T11:16:34.503Z,16.90
2023-12-01T11:19:08.081Z,15.90
2023-12-01T11:21:50.560Z,15.00
2023-12-01T11:24:26.589Z,14.50
2023-12-01T11:27:10.029Z,18.40
2023-12-01T11:30:07.724Z,18.40
2023-12-01T11:32:42.195Z,21.50
2023-12-01T11:35:16.187Z,19.70
2023-12-01T11:37:57.138Z,20.40
2023-12-01T11:40:28.851Z,20.60
2023-12-01T11:43:06.655Z,17.20
2023-12-01T11:45:48.746Z,16.40
2023-12-01T11:48:22.150Z,15.30
2023-12-01T11:50:56.248Z,12.80
2023-12-01T11:53:28.263Z,17.30
2023-12-01T11:56:00.464Z,17.90
2023-12-01T11:58:33.216Z,14.50
2023-12-01T12:01:04.924Z,16.10
2023-12-01T12:03:36.559Z,14.90
2023-12-01T12:06:09.141Z,17.20
2023-12-01T12:08:41.354Z,13.50
2023-12-01T12:11:13.330Z,13.00
2023-12-01T12:13:46.064Z,12.00
2023-12-01T12:16:18.874Z,14.20
2023-12-01T12:18:51.435Z,11.90
2023-12-01T12:21:24.306Z,14.00
2023-12-01T12:23:57.062Z,11.70
2023-12-01T12:26:31.245Z,11.60
2023-12-01T12:29:04.711Z,11.80
2023-12-01T12:31:37.697Z,11.60
2023-12-01T12:34:10.622Z,10.80
2023-12-01T12:36:44.472Z,10.90
2023-12-01T12:39:18.314Z,12.70
2023-12-01T12:41:54.937Z,11.30
2023-12-01T12:44:31.381Z,11.00
2023-12-01T12:47:05.865Z,11.50
2023-12-01T12:49:37.498Z,12.00
2023-12-01T12:52:09.065Z,12.10
2023-12-01T12:54:44.257Z,13.50
2023-12-01T12:57:16.573Z,12.60
2023-12-01T12:59:53.498Z,12.60
2023-12-01T13:02:25.378Z,13.60
2023-12-01T13:04:57.321Z,13.80
2023-12-01T13:07:28.937Z,14.50
2023-12-01T13:10:00.526Z,12.10
2023-12-01T13:12:32.250Z,11.80
2023-12-01T13:15:05.257Z,12.30
2023-12-01T13:17:36.889Z,14.40
2023-12-01T13:20:09.228Z,14.00
2023-12-01T13:22:41.036Z,12.80
2023-12-01T13:25:13.061Z,13.60
2023-12-01T13:27:44.878Z,13.20
2023-12-01T13:30:17.334Z,12.60
2023-12-01T13:32:48.986Z,12.10
2023-12-01T13:35:20.598Z,12.30
2023-12-01T13:37:52.293Z,12.40
2023-12-01T13:40:23.931Z,12.10
2023-12-01T13:42:55.528Z,13.30
2023-12-01T13:45:27.360Z,13.70
2023-12-01T13:47:59.096Z,29.20
2023-12-01T13:50:30.856Z,24.00
2023-12-01T13:53:02.527Z,22.10
2023-12-01T13:55:35.191Z,25.10
2023-12-01T13:58:06.941Z,26.90
2023-12-01T14:00:38.648Z,21.10
2023-12-01T14:03:20.159Z,19.80
2023-12-01T14:05:57.411Z,18.50
2023-12-01T14:08:29.144Z,16.40
2023-12-01T14:11:00.732Z,15.30
2023-12-01T14:13:33.058Z,14.20
2023-12-01T14:16:05.998Z,13.00
2023-12-01T14:18:37.848Z,13.00
2023-12-01T14:21:09.691Z,15.30
2023-12-01T14:23:41.408Z,13.40
2023-12-01T14:26:12.975Z,14.10
2023-12-01T14:28:44.728Z,17.30
2023-12-01T14:31:16.427Z,18.20
2023-12-01T14:33:48.129Z,16.50
2023-12-01T14:36:20.678Z,15.80
2023-12-01T14:38:53.492Z,16.10
2023-12-01T14:41:25.244Z,14.70
2023-12-01T14:43:57.963Z,15.90
2023-12-01T14:46:29.578Z,15.10
2023-12-01T14:49:01.231Z,16.00
2023-12-01T14:51:32.823Z,15.30
2023-12-01T14:54:07.234Z,15.20
2023-12-01T14:56:38.818Z,15.00
2023-12-01T14:59:10.450Z,15.90
2023-12-01T15:01:42.094Z,17.70
2023-12-01T15:04:13.746Z,15.50
2023-12-01T15:06:45.475Z,16.70
2023-12-01T15:09:17.175Z,21.30
2023-12-01T15:11:51.760Z,29.60
2023-12-01T15:14:23.471Z,31.40
2023-12-01T15:16:55.361Z,31.40
2023-12-01T15:19:27.546Z,27.30
2023-12-01T15:22:05.004Z,25.90
2023-12-01T15:24:36.902Z,27.40
2023-12-01T15:27:08.689Z,25.70
2023-12-01T15:29:40.469Z,27.40
2023-12-01T15:32:12.139Z,28.80
2023-12-01T15:34:43.758Z,21.50
2023-12-01T15:37:15.469Z,23.70
2023-12-01T15:39:47.278Z,24.10
2023-12-01T15:42:19.021Z,24.20
2023-12-01T15:44:51.347Z,25.80
2023-12-01T15:47:23.071Z,24.10
2023-12-01T15:49:54.750Z,20.70
2023-12-01T15:52:26.425Z,20.20
2023-12-01T15:54:58.209Z,22.90
2023-12-01T15:57:29.829Z,25.30
2023-12-01T16:00:02.693Z,39.20
2023-12-01T16:02:34.366Z,61.90
2023-12-01T16:05:06.557Z,28.80
2023-12-01T16:07:38.152Z,33.50
2023-12-01T16:10:09.971Z,40.70
2023-12-01T16:12:41.621Z,32.60
2023-12-01T16:15:17.757Z,31.20
2023-12-01T16:17:50.237Z,37.70
2023-12-01T16:20:22.759Z,45.40
2023-12-01T16:22:54.463Z,44.60
2023-12-01T16:25:26.035Z,39.10
2023-12-01T16:27:57.647Z,41.60
2023-12-01T16:30:29.662Z,37.60
2023-12-01T16:33:01.876Z,32.00
2023-12-01T16:35:33.579Z,35.00
2023-12-01T16:38:06.382Z,32.30
2023-12-01T16:40:38.000Z,37.10
2023-12-01T16:43:09.548Z,36.90
2023-12-01T16:45:42.239Z,41.90
2023-12-01T16:48:14.004Z,42.50
2023-12-01T16:50:45.773Z,37.50
2023-12-01T16:53:17.491Z,33.80
2023-12-01T16:55:49.090Z,33.90
2023-12-01T16:58:26.314Z,34.20
2023-12-01T17:00:58.619Z,34.90
2023-12-01T17:03:30.364Z,32.50
2023-12-01T17:06:02.072Z,34.70
2023-12-01T17:08:33.748Z,38.30
2023-12-01T17:11:09.188Z,37.20
2023-12-01T17:13:40.812Z,35.30
2023-12-01T17:16:12.440Z,33.60
2023-12-01T17:18:44.144Z,30.20
2023-12-01T17:21:15.929Z,31.20
2023-12-01T17:23:47.648Z,30.10
2023-12-01T17:26:19.366Z,27.20
2023-12-01T17:28:50.963Z,26.20
2023-12-01T17:31:25.585Z,26.60
2023-12-01T17:33:57.338Z,31.40
2023-12-01T17:36:29.038Z,32.90
2023-12-01T17:39:00.884Z,35.60
2023-12-01T17:41:33.142Z,32.80
2023-12-01T17:44:04.987Z,35.70
2023-12-01T17:46:36.896Z,31.50
2023-12-01T17:49:08.543Z,34.80
2023-12-01T17:51:40.159Z,41.50
2023-12-01T17:54:13.390Z,42.70
2023-12-01T17:56:45.178Z,41.70
2023-12-01T17:59:16.915Z,36.40
2023-12-01T18:01:48.622Z,38.20
2023-12-01T18:04:20.401Z,37.90
2023-12-01T18:06:52.397Z,38.00
2023-12-01T18:09:27.263Z,31.20
2023-12-01T18:11:58.987Z,28.60
2023-12-01T18:14:36.005Z,31.50
2023-12-01T18:17:08.918Z,26.50
2023-12-01T18:19:40.617Z,31.50
2023-12-01T18:22:12.234Z,37.90
2023-12-01T18:24:46.621Z,38.00
2023-12-01T18:27:25.034Z,43.60
2023-12-01T18:29:59.489Z,52.20
2023-12-01T18:32:31.147Z,77.90
2023-12-01T18:35:07.100Z,77.00
2023-12-01T18:37:39.689Z,44.60
2023-12-01T18:40:12.283Z,37.00
2023-12-01T18:42:44.089Z,36.80
2023-12-01T18:45:15.854Z,36.20
2023-12-01T18:47:49.007Z,34.00
2023-12-01T18:50:21.032Z,31.10
2023-12-01T18:52:52.712Z,28.50
2023-12-01T18:55:24.579Z,32.00
2023-12-01T18:57:56.607Z,35.70
2023-12-01T19:00:28.456Z,33.70
2023-12-01T19:03:00.393Z,40.00
2023-12-01T19:05:32.643Z,48.50
2023-12-01T19:08:04.416Z,34.00
2023-12-01T19:10:36.017Z,29.90
2023-12-01T19:13:10.008Z,28.50
2023-12-01T19:15:41.608Z,28.80
2023-12-01T19:18:16.011Z,24.40
2023-12-01T19:20:47.722Z,25.70
2023-12-01T19:23:19.331Z,26.80
2023-12-01T19:25:50.882Z,25.50
2023-12-01T19:28:22.530Z,30.20
2023-12-01T19:30:54.111Z,31.60
2023-12-01T19:33:25.835Z,29.60
2023-12-01T19:35:57.971Z,33.10
2023-12-01T19:38:29.774Z,32.60
2023-12-01T19:41:01.340Z,32.20
2023-12-01T19:43:32.985Z,29.60
2023-12-01T19:46:04.641Z,30.40
2023-12-01T19:48:36.842Z,25.90
2023-12-01T19:51:12.502Z,33.40
2023-12-01T19:53:44.251Z,36.50
2023-12-01T19:56:16.057Z,29.50
2023-12-01T19:58:47.997Z,29.80
2023-12-01T20:01:19.788Z,26.50
2023-12-01T20:03:51.359Z,33.60
2023-12-01T20:06:23.245Z,29.30
2023-12-01T20:08:54.955Z,29.70
2023-12-01T20:11:26.748Z,27.60
2023-12-01T20:13:58.457Z,34.30
2023-12-01T20:16:30.133Z,31.70
2023-12-01T20:19:02.307Z,29.80
2023-12-01T20:21:35.137Z,30.50
2023-12-01T20:24:08.421Z,28.30
2023-12-01T20:26:43.395Z,28.20
2023-12-01T20:29:15.016Z,30.60
2023-12-01T20:31:47.601Z,28.90
2023-12-01T20:34:19.235Z,29.00
2023-12-01T20:36:50.854Z,27.60
2023-12-01T20:39:23.465Z,28.40
2023-12-01T20:41:55.131Z,29.10
2023-12-01T20:44:27.860Z,26.60
2023-12-01T20:46:59.946Z,29.90
2023-12-01T20:49:31.747Z,25.60
2023-12-01T20:52:04.501Z,36.40
2023-12-01T20:54:38.931Z,39.40
2023-12-01T20:57:10.570Z,37.30
2023-12-01T20:59:42.313Z,38.80
2023-12-01T21:02:13.932Z,43.70
2023-12-01T21:04:45.589Z,41.60
2023-12-01T21:07:17.258Z,36.20
2023-12-01T21:09:49.053Z,43.20
2023-12-01T21:12:20.845Z,34.40
2023-12-01T21:14:54.257Z,33.60
2023-12-01T21:17:26.152Z,28.90
2023-12-01T21:19:58.168Z,28.10
2023-12-01T21:22:29.832Z,37.70
2023-12-01T21:25:03.593Z,35.90
2023-12-01T21:27:35.233Z,33.60
2023-12-01T21:30:07.637Z,37.20
2023-12-01T21:32:39.351Z,36.70
2023-12-01T21:35:11.033Z,36.20
2023-12-01T21:37:44.457Z,33.10
2023-12-01T21:42:47.835Z,32.40
2023-12-01T21:45:19.721Z,29.70
2023-12-01T21:47:51.489Z,35.20
2023-12-01T21:50:23.205Z,30.20
2023-12-01T21:52:54.912Z,32.20
2023-12-01T21:55:26.603Z,30.80
2023-12-01T21:57:58.190Z,37.30
2023-12-01T22:00:30.456Z,38.80
2023-12-01T22:03:02.085Z,34.70
2023-12-01T22:05:34.032Z,35.80
2023-12-01T22:08:07.977Z,34.20
2023-12-01T22:10:39.621Z,34.90
2023-12-01T22:13:11.248Z,37.20
2023-12-01T22:15:42.925Z,38.60
2023-12-01T22:18:17.754Z,37.90
2023-12-01T22:20:49.566Z,38.50
2023-12-01T22:23:21.240Z,31.50
2023-12-01T22:25:52.874Z,37.40
2023-12-01T22:28:24.509Z,34.70
2023-12-01T22:30:56.099Z,42.50
2023-12-01T22:33:27.711Z,45.30
2023-12-01T22:35:59.391Z,30.40
2023-12-01T22:38:30.977Z,31.70
2023-12-01T22:41:03.664Z,32.50
2023-12-01T22:43:38.435Z,42.10
2023-12-01T22:46:10.105Z,48.70
2023-12-01T22:48:42.435Z,38.10
2023-12-01T22:51:14.346Z,35.60
2023-12-01T22:53:45.989Z,34.70
2023-12-01T22:56:20.566Z,32.40
2023-12-01T22:58:52.292Z,33.10
2023-12-01T23:01:24.290Z,35.20
2023-12-01T23:03:56.091Z,33.00
2023-12-01T23:06:28.063Z,31.30
2023-12-01T23:09:01.967Z,33.60
2023-12-01T23:11:33.633Z,29.20
2023-12-01T23:14:05.355Z,31.10
2023-12-01T23:16:37.019Z,27.80
2023-12-01T23:19:08.801Z,35.30
2023-12-01T23:21:40.553Z,28.90
2023-12-01T23:24:12.620Z,30.70
2023-12-01T23:26:44.746Z,31.00
2023-12-01T23:29:16.547Z,28.20
2023-12-01T23:31:48.143Z,30.30
2023-12-01T23:34:19.849Z,25.00
2023-12-01T23:36:51.612Z,28.60
2023-12-01T23:39:23.260Z,33.00
2023-12-01T23:41:54.877Z,29.10
2023-12-01T23:44:26.482Z,33.00
2023-12-01T23:46:58.266Z,28.50
2023-12-01T23:49:29.915Z,30.80
2023-12-01T23:52:01.614Z,27.70
2023-12-01T23:54:34.430Z,30.00
2023-12-01T23:57:06.132Z,34.50
2023-12-01T23:59:37.798Z,27.40
